Time;durP1;ratioP1;P1;durP2;ratioP2;P2;SDS_P1;SDS_P2;PMS_P1;PMS_P2;Temp;Humidity;BMP_temperature;BMP_pressure;BME280_temperature;BME280_humidity;BME280_pressure;Samples;Min_cycle;Max_cycle;Signal;HPM_P1;HPM_P2
2023/03/28 05:01:13;;;;;;;6.57;2.27;;;0.60;99.90;;;;;;5961714;23;20098;31
2023/03/28 05:03:58;;;;;;;5.45;2.60;;;0.60;99.90;;;;;;4907481;29;20215;-76
2023/03/28 05:06:27;;;;;;;6.70;2.50;;;0.70;99.90;;;;;;4912667;29;20285;-74
2023/03/28 05:08:53;;;;;;;7.85;2.95;;;0.60;99.90;;;;;;4919732;29;20213;-74
2023/03/28 05:11:24;;;;;;;6.85;2.67;;;0.70;99.90;;;;;;4913991;29;20036;-74
2023/03/28 05:13:50;;;;;;;9.13;2.83;;;0.60;99.90;;;;;;4907598;29;20032;-73
2023/03/28 05:16:26;;;;;;;6.60;2.40;;;0.60;99.90;;;;;;4922912;29;20207;-74
2023/03/28 05:19:26;;;;;;;8.63;2.95;;;0.70;99.90;;;;;;4907954;29;20063;-76
2023/03/28 05:22:05;;;;;;;6.93;2.95;;;0.70;99.90;;;;;;4922495;29;20083;-73
2023/03/28 05:24:31;;;;;;;8.27;2.83;;;0.70;99.90;;;;;;4922939;29;20032;-73
2023/03/28 05:26:57;;;;;;;7.57;2.85;;;0.60;99.90;;;;;;4923776;29;20272;-75
2023/03/28 05:29:23;;;;;;;6.50;2.78;;;0.60;99.90;;;;;;4922720;29;20024;-73
2023/03/28 05:31:50;;;;;;;5.10;2.72;;;0.60;99.90;;;;;;4922267;29;20321;-74
2023/03/28 05:34:23;;;;;;;6.65;2.58;;;0.60;99.90;;;;;;4921723;29;20356;-74
2023/03/28 05:36:49;;;;;;;8.45;2.45;;;0.60;99.90;;;;;;4918205;29;20040;-76
2023/03/28 05:39:23;;;;;;;5.25;2.45;;;0.60;99.90;;;;;;4922570;29;20044;-74
2023/03/28 05:41:51;;;;;;;;;;;0.70;99.90;;;;;;4922858;29;20334;-75
2023/03/28 05:44:17;;;;;;;11.02;2.50;;;0.80;99.90;;;;;;4922684;29;19903;-75
2023/03/28 05:47:02;;;;;;;4.03;2.38;;;0.80;99.90;;;;;;4908130;29;20032;-75
2023/03/28 05:49:28;;;;;;;6.65;2.65;;;0.90;99.90;;;;;;4922604;29;20100;-76
2023/03/28 05:51:54;;;;;;;6.55;2.60;;;0.90;99.90;;;;;;4921965;29;20494;-74
2023/03/28 05:54:20;;;;;;;10.73;2.97;;;1.00;99.90;;;;;;4922457;29;20060;-75
2023/03/28 05:56:45;;;;;;;7.32;2.85;;;1.00;99.90;;;;;;4921244;29;20104;-74
2023/03/28 05:59:12;;;;;;;10.02;2.92;;;1.00;99.90;;;;;;4921337;29;20031;-74
2023/03/28 06:01:38;;;;;;;6.82;2.72;;;1.10;99.90;;;;;;4919047;29;20052;-74
2023/03/28 06:04:05;;;;;;;7.18;2.67;;;1.20;99.90;;;;;;4890716;29;20047;-73
2023/03/28 06:06:34;;;;;;;6.55;2.78;;;1.20;99.90;;;;;;4890556;29;20041;-74
2023/03/28 06:09:02;;;;;;;7.60;3.05;;;1.30;99.90;;;;;;4890331;29;20031;-74
2023/03/28 06:11:37;;;;;;;9.88;3.50;;;1.30;99.90;;;;;;4905529;29;20041;-73
2023/03/28 06:14:09;;;;;;;14.52;4.28;;;1.40;99.90;;;;;;4890731;29;20088;-75
2023/03/28 06:16:36;;;;;;;16.00;4.68;;;1.50;99.90;;;;;;4890478;29;20032;-74
2023/03/28 06:19:03;;;;;;;12.77;4.80;;;1.60;99.90;;;;;;4890346;29;20028;-75
2023/03/28 06:21:29;;;;;;;14.90;4.93;;;1.60;99.90;;;;;;4890524;29;20070;-74
2023/03/28 06:23:59;;;;;;;16.65;4.82;;;1.70;99.90;;;;;;4890030;29;20037;-75
2023/03/28 06:26:30;;;;;;;18.90;5.50;;;1.80;99.90;;;;;;4890395;29;20274;-74
2023/03/28 06:28:56;;;;;;;21.02;6.47;;;1.80;99.90;;;;;;4889895;29;20032;-74
2023/03/28 06:31:33;;;;;;;18.27;6.75;;;1.90;99.90;;;;;;4890393;29;20020;-74
2023/03/28 06:33:59;;;;;;;16.30;5.65;;;2.00;99.90;;;;;;4906250;29;20099;-74
2023/03/28 06:36:24;;;;;;;14.38;4.90;;;2.10;99.90;;;;;;4890134;29;20092;-74
2023/03/28 06:38:52;;;;;;;13.98;5.70;;;2.10;99.90;;;;;;4889723;29;20029;-75
2023/03/28 06:41:18;;;;;;;18.10;5.43;;;2.30;99.90;;;;;;4890236;29;20025;-75
2023/03/28 06:43:45;;;;;;;12.88;5.53;;;2.30;99.90;;;;;;4889361;29;20473;-74
2023/03/28 06:46:47;;;;;;;15.90;4.45;;;2.40;99.90;;;;;;4889666;29;20021;-75
2023/03/28 06:49:12;;;;;;;11.80;4.88;;;2.60;99.90;;;;;;4890379;29;20035;-74
2023/03/28 06:52:01;;;;;;;15.30;4.90;;;2.60;99.90;;;;;;4905840;29;20210;-75
2023/03/28 06:54:31;;;;;;;11.88;4.57;;;2.70;99.90;;;;;;4890152;29;20314;-74
2023/03/28 06:56:57;;;;;;;10.57;4.00;;;2.80;99.90;;;;;;4889602;29;20036;-74
2023/03/28 06:59:23;;;;;;;8.18;3.50;;;2.90;99.90;;;;;;4888520;29;20108;-74
2023/03/28 07:01:54;;;;;;;12.25;3.72;;;3.10;99.90;;;;;;4886268;29;20120;-73
2023/03/28 07:04:25;;;;;;;9.85;3.42;;;3.20;99.90;;;;;;4889778;29;20044;-72
2023/03/28 07:06:51;;;;;;;14.13;3.58;;;3.30;99.90;;;;;;4886330;29;20029;-72
2023/03/28 07:09:17;;;;;;;7.45;3.75;;;3.50;99.90;;;;;;4894772;29;20037;-71
2023/03/28 07:11:48;;;;;;;10.02;3.58;;;3.60;99.90;;;;;;4916167;29;20053;-72
2023/03/28 07:14:15;;;;;;;10.23;3.30;;;3.70;99.90;;;;;;4890791;29;20029;-72
2023/03/28 07:16:41;;;;;;;5.72;2.95;;;3.80;99.90;;;;;;4889400;29;20349;-74
2023/03/28 07:19:09;;;;;;;7.13;2.27;;;3.90;99.90;;;;;;4889795;29;20037;-72
2023/03/28 07:21:36;;;;;;;5.82;2.80;;;4.00;99.90;;;;;;4889802;29;20829;-73
2023/03/28 07:24:03;;;;;;;9.77;3.25;;;4.10;99.90;;;;;;4889024;29;20068;-74
2023/03/28 07:26:44;;;;;;;5.97;1.75;;;4.20;99.90;;;;;;4889523;29;20057;-74
2023/03/28 07:29:10;;;;;;;6.90;1.80;;;4.40;99.90;;;;;;4889616;29;20037;-76
2023/03/28 07:31:35;;;;;;;7.93;1.70;;;4.40;99.90;;;;;;4889537;29;20089;-73
2023/03/28 07:34:01;;;;;;;5.97;1.75;;;4.50;99.90;;;;;;4889009;29;20063;-74
2023/03/28 07:36:28;;;;;;;5.15;2.08;;;4.30;99.90;;;;;;4891356;29;20040;-75
2023/03/28 07:39:00;;;;;;;6.03;2.22;;;4.20;99.90;;;;;;4889760;29;20200;-74
2023/03/28 07:41:26;;;;;;;8.63;2.25;;;4.20;99.90;;;;;;4891488;29;20055;-76
2023/03/28 07:43:52;;;;;;;5.80;2.00;;;4.30;99.90;;;;;;4889372;29;20024;-72
2023/03/28 07:46:19;;;;;;;4.45;2.13;;;4.40;99.90;;;;;;4890954;29;20076;-71
2023/03/28 07:48:45;;;;;;;7.95;2.22;;;4.50;99.90;;;;;;4890874;29;20064;-74
2023/03/28 07:51:11;;;;;;;5.82;2.00;;;4.60;99.70;;;;;;4890023;29;20040;-70
2023/03/28 07:53:37;;;;;;;4.93;1.70;;;4.80;99.30;;;;;;4889978;29;20064;-73
2023/03/28 07:56:05;;;;;;;8.77;2.38;;;4.80;98.70;;;;;;4894129;29;20048;-73
2023/03/28 07:58:49;;;;;;;8.52;1.92;;;4.90;98.80;;;;;;4889477;29;20248;-72
2023/03/28 08:01:17;;;;;;;8.10;1.90;;;5.10;98.60;;;;;;4905322;29;20073;-74
2023/03/28 08:03:52;;;;;;;9.18;2.30;;;5.40;98.40;;;;;;4892256;29;20036;-81
2023/03/28 08:06:19;;;;;;;9.68;2.67;;;5.60;97.90;;;;;;4892582;29;20222;-74
2023/03/28 08:08:45;;;;;;;7.97;2.35;;;5.80;96.90;;;;;;4891967;29;20023;-73
2023/03/28 08:11:27;;;;;;;6.13;1.90;;;6.10;96.50;;;;;;4892711;29;20104;-75
2023/03/28 08:13:53;;;;;;;4.95;1.83;;;6.20;95.10;;;;;;4892164;29;20036;-74
2023/03/28 08:16:22;;;;;;;11.57;2.22;;;6.20;94.80;;;;;;4892519;29;20055;-72
2023/03/28 08:18:47;;;;;;;7.72;2.10;;;6.20;95.20;;;;;;4891622;29;20033;-74
2023/03/28 08:21:13;;;;;;;6.28;1.80;;;6.20;95.20;;;;;;4892655;29;20055;-72
2023/03/28 08:23:39;;;;;;;5.38;1.35;;;6.40;93.30;;;;;;4892569;29;20236;-74
2023/03/28 08:26:19;;;;;;;6.95;1.60;;;6.50;92.60;;;;;;4892505;29;20108;-74
2023/03/28 08:28:50;;;;;;;6.85;1.60;;;6.80;91.90;;;;;;4892065;29;20240;-72
2023/03/28 08:31:16;;;;;;;6.97;1.70;;;7.00;91.80;;;;;;4892324;29;20024;-73
2023/03/28 08:33:51;;;;;;;6.03;1.70;;;7.30;91.50;;;;;;4891988;29;20036;-74
2023/03/28 08:36:23;;;;;;;7.22;1.58;;;7.30;91.40;;;;;;4892320;29;20283;-73
2023/03/28 08:38:50;;;;;;;7.43;1.88;;;7.30;91.50;;;;;;4891394;29;20036;-73
2023/03/28 08:41:46;;;;;;;7.95;1.80;;;7.00;91.40;;;;;;4892119;29;20025;-75
2023/03/28 08:44:48;;;;;;;5.50;1.48;;;6.80;91.40;;;;;;4892221;29;20041;-72
2023/03/28 08:47:31;;;;;;;6.25;1.70;;;6.80;91.60;;;;;;4892359;29;20033;-74
2023/03/28 08:50:00;;;;;;;3.47;1.52;;;6.80;91.00;;;;;;4891510;29;20303;-73
2023/03/28 08:52:27;;;;;;;5.07;1.80;;;6.80;91.80;;;;;;4907476;29;20035;-73
2023/03/28 08:55:05;;;;;;;3.80;1.35;;;6.80;91.10;;;;;;4907139;29;20240;-73
2023/03/28 08:57:34;;;;;;;5.43;1.40;;;6.80;91.00;;;;;;4895183;29;20028;-71
2023/03/28 09:00:35;;;;;;;6.45;1.60;;;6.90;91.20;;;;;;4906556;29;20080;-73
2023/03/28 09:03:25;;;;;;;4.43;1.40;;;6.80;88.20;;;;;;4902687;29;20049;-73
2023/03/28 09:06:24;;;;;;;4.95;1.42;;;6.60;89.10;;;;;;4898162;29;20168;-72
2023/03/28 09:09:18;;;;;;;6.82;1.35;;;6.80;89.60;;;;;;4891127;29;20030;-73
2023/03/28 09:12:04;;;;;;;4.07;1.30;;;7.00;89.40;;;;;;4906616;29;20096;-74
2023/03/28 09:14:44;;;;;;;6.13;1.52;;;7.10;89.20;;;;;;4907832;29;20040;-72
2023/03/28 09:17:54;;;;;;;6.40;1.33;;;7.00;88.60;;;;;;4916743;29;20029;-73
2023/03/28 09:20:37;;;;;;;6.10;1.33;;;7.00;90.00;;;;;;4891661;29;20329;-72
2023/03/28 09:23:17;;;;;;;4.05;1.23;;;6.90;88.50;;;;;;4890700;29;20050;-72
2023/03/28 09:26:21;;;;;;;4.72;0.93;;;6.90;87.30;;;;;;4901226;29;20051;-71
2023/03/28 09:29:04;;;;;;;8.38;1.38;;;6.80;85.60;;;;;;4899661;29;20039;-71
2023/03/28 09:31:54;;;;;;;4.07;1.10;;;6.90;83.80;;;;;;4908272;29;20094;-73
2023/03/28 09:34:27;;;;;;;4.65;0.88;;;7.00;82.70;;;;;;4907850;29;20140;-74
2023/03/28 09:37:01;;;;;;;5.50;1.00;;;7.20;80.60;;;;;;4906335;29;20247;-76
2023/03/28 09:39:38;;;;;;;2.60;1.10;;;7.70;80.20;;;;;;4907252;29;20032;-75
2023/03/28 09:42:23;;;;;;;9.23;1.10;;;7.90;77.10;;;;;;4895312;29;20071;-73
2023/03/28 09:45:06;;;;;;;3.72;0.70;;;7.90;76.80;;;;;;4912179;29;20207;-76
2023/03/28 09:47:52;;;;;;;1.75;0.60;;;8.00;74.80;;;;;;4899876;29;20049;-73
2023/03/28 09:50:21;;;;;;;5.15;1.33;;;7.80;74.60;;;;;;4892350;29;20024;-73
2023/03/28 09:52:55;;;;;;;5.05;1.27;;;7.90;74.00;;;;;;4892249;29;20046;-75
2023/03/28 09:55:27;;;;;;;3.60;1.13;;;7.80;75.40;;;;;;4907458;29;20028;-75
2023/03/28 09:58:13;;;;;;;5.05;1.13;;;7.70;75.90;;;;;;4889893;29;20107;-75
2023/03/28 10:01:36;;;;;;;3.67;0.90;;;7.70;76.50;;;;;;4918354;29;20020;-75
2023/03/28 10:04:29;;;;;;;4.10;0.90;;;7.80;75.60;;;;;;4906883;29;20060;-78
2023/03/28 10:07:10;;;;;;;3.28;0.90;;;7.90;75.90;;;;;;4906996;29;20040;-79
2023/03/28 10:09:52;;;;;;;3.90;1.20;;;8.20;75.80;;;;;;4890558;29;20357;-77
2023/03/28 10:12:31;;;;;;;6.05;1.27;;;8.40;74.30;;;;;;4890319;29;20365;-72
2023/03/28 10:14:59;;;;;;;4.18;0.90;;;8.30;74.20;;;;;;4906752;29;20048;-76
2023/03/28 10:18:02;;;;;;;3.53;0.93;;;8.60;74.00;;;;;;4906353;29;20061;-74
2023/03/28 10:20:35;;;;;;;5.97;1.30;;;8.50;72.30;;;;;;4890227;29;20028;-73
2023/03/28 10:23:04;;;;;;;3.63;1.05;;;8.50;73.40;;;;;;4889775;29;20032;-75
2023/03/28 10:25:38;;;;;;;3.67;1.02;;;8.60;72.20;;;;;;4890489;29;20068;-73
2023/03/28 10:28:06;;;;;;;4.25;0.90;;;8.90;72.20;;;;;;4890029;29;20028;-74
2023/03/28 10:30:34;;;;;;;3.22;0.93;;;8.90;70.40;;;;;;4907240;29;20031;-74
2023/03/28 10:33:22;;;;;;;4.82;1.20;;;8.80;72.50;;;;;;4889788;29;20150;-74
2023/03/28 10:36:31;;;;;;;6.05;0.90;;;9.00;73.20;;;;;;4896845;29;20049;-75
2023/03/28 10:39:11;;;;;;;4.28;0.82;;;9.40;71.30;;;;;;4890033;29;20028;-74
2023/03/28 10:42:03;;;;;;;2.58;0.95;;;9.60;72.10;;;;;;4898270;29;20077;-73
2023/03/28 10:45:01;;;;;;;5.57;1.10;;;9.80;69.30;;;;;;4889551;29;20046;-74
2023/03/28 10:47:30;;;;;;;3.05;1.00;;;9.70;69.40;;;;;;4890227;29;20188;-75
2023/03/28 10:50:18;;;;;;;5.72;1.20;;;9.80;69.00;;;;;;4889521;29;20104;-75
2023/03/28 10:53:09;;;;;;;3.50;1.00;;;9.70;69.00;;;;;;4906280;29;20047;-73
2023/03/28 10:56:09;;;;;;;4.50;1.08;;;9.50;68.40;;;;;;4886875;29;20033;-75
2023/03/28 10:59:23;;;;;;;2.85;1.00;;;9.40;68.10;;;;;;4885552;29;20037;-73
2023/03/28 11:02:06;;;;;;;4.22;1.10;;;9.40;70.20;;;;;;4908328;29;20044;-73
2023/03/28 11:05:09;;;;;;;4.20;1.38;;;9.60;70.60;;;;;;4909218;29;20036;-75
2023/03/28 11:08:00;;;;;;;2.88;0.90;;;9.90;68.80;;;;;;4906304;29;20029;-75
2023/03/28 11:10:58;;;;;;;3.30;0.90;;;10.30;67.70;;;;;;4889985;29;20021;-74
2023/03/28 11:13:50;;;;;;;5.00;1.10;;;10.80;66.20;;;;;;4905575;29;20033;-75
2023/03/28 11:16:44;;;;;;;4.55;1.17;;;10.50;65.80;;;;;;4904840;29;20025;-76
2023/03/28 11:19:39;;;;;;;3.85;1.00;;;11.30;67.10;;;;;;4904693;29;20349;-76
2023/03/28 11:22:41;;;;;;;5.70;1.20;;;11.70;64.70;;;;;;4889026;29;20353;-77
2023/03/28 11:25:21;;;;;;;5.18;1.45;;;12.10;63.20;;;;;;4877702;29;20059;-75
2023/03/28 11:28:48;;;;;;;4.70;1.00;;;13.10;62.00;;;;;;4905889;29;20072;-75
2023/03/28 11:31:23;;;;;;;4.40;1.13;;;14.70;60.60;;;;;;4889307;29;20029;-78
2023/03/28 11:34:20;;;;;;;2.30;0.80;;;15.30;57.80;;;;;;4887787;29;20051;-74
2023/03/28 11:37:04;;;;;;;4.45;1.00;;;15.90;57.00;;;;;;4894765;29;20064;-75
2023/03/28 11:39:54;;;;;;;3.50;1.10;;;16.90;55.90;;;;;;4905027;29;20116;-73
2023/03/28 11:42:41;;;;;;;3.17;1.00;;;17.20;54.00;;;;;;4889470;29;20254;-72
2023/03/28 11:45:33;;;;;;;5.78;1.48;;;16.20;55.60;;;;;;4895679;29;20116;-76
2023/03/28 11:48:21;;;;;;;4.18;0.90;;;17.00;54.20;;;;;;4905438;29;20036;-76
2023/03/28 11:51:11;;;;;;;2.67;0.90;;;18.10;54.40;;;;;;4889482;29;20294;-76
2023/03/28 11:53:58;;;;;;;3.85;1.00;;;18.60;53.40;;;;;;4905270;29;20218;-75
2023/03/28 11:56:33;;;;;;;3.47;0.73;;;18.80;51.80;;;;;;4893045;29;20032;-74
2023/03/28 11:59:25;;;;;;;3.65;1.00;;;18.50;51.20;;;;;;4892600;29;20039;-73
2023/03/28 12:02:07;;;;;;;3.20;0.93;;;17.60;51.70;;;;;;4892359;29;20112;-74
2023/03/28 12:04:42;;;;;;;3.15;1.10;;;16.60;54.60;;;;;;4909659;29;20044;-74
2023/03/28 12:07:20;;;;;;;3.95;1.15;;;17.40;56.50;;;;;;4891932;29;20092;-74
2023/03/28 12:10:10;;;;;;;5.32;1.27;;;18.40;52.20;;;;;;4892541;29;20093;-74
2023/03/28 12:13:06;;;;;;;3.67;1.08;;;18.10;52.60;;;;;;4892537;29;20040;-76
2023/03/28 12:15:45;;;;;;;8.65;2.20;;;18.50;51.50;;;;;;4890051;29;20179;-74
2023/03/28 12:18:50;;;;;;;3.15;0.95;;;17.90;51.90;;;;;;4891926;29;20111;-75
2023/03/28 12:21:50;;;;;;;4.13;1.40;;;18.10;51.30;;;;;;4892570;29;20108;-74
2023/03/28 12:24:43;;;;;;;3.20;1.08;;;17.20;52.20;;;;;;4891944;29;20187;-75
2023/03/28 12:27:40;;;;;;;4.65;1.27;;;16.70;52.70;;;;;;4892054;29;20033;-76
2023/03/28 12:30:20;;;;;;;3.80;1.08;;;17.00;51.70;;;;;;4891903;29;20039;-74
2023/03/28 12:32:52;;;;;;;4.05;1.30;;;17.20;53.40;;;;;;4891866;29;20032;-75
2023/03/28 12:35:55;;;;;;;4.38;1.08;;;17.90;51.20;;;;;;4891555;29;20047;-77
2023/03/28 12:38:31;;;;;;;3.75;1.00;;;17.40;50.90;;;;;;4872778;29;20036;-73
2023/03/28 12:41:18;;;;;;;4.78;1.13;;;18.00;51.50;;;;;;4891714;29;20037;-73
2023/03/28 12:43:47;;;;;;;3.38;0.90;;;19.00;50.70;;;;;;4908726;29;20036;-74
2023/03/28 12:46:48;;;;;;;5.03;1.20;;;19.30;49.80;;;;;;4891568;29;20040;-76
2023/03/28 12:49:18;;;;;;;2.70;0.88;;;18.80;49.80;;;;;;4891613;29;20059;-75
2023/03/28 12:51:53;;;;;;;3.33;1.00;;;20.20;51.00;;;;;;4891729;29;20065;-75
2023/03/28 12:54:26;;;;;;;2.10;0.80;;;19.90;48.40;;;;;;4899541;29;20357;-75
2023/03/28 12:57:02;;;;;;;3.38;0.85;;;20.20;48.00;;;;;;4893455;29;20029;-76
2023/03/28 12:59:42;;;;;;;3.13;0.90;;;20.10;50.80;;;;;;4889137;29;20100;-77
2023/03/28 13:02:32;;;;;;;2.75;0.95;;;19.80;50.90;;;;;;4887383;29;20116;-74
2023/03/28 13:05:17;;;;;;;3.38;0.95;;;19.60;50.90;;;;;;4888083;29;20021;-75
2023/03/28 13:07:57;;;;;;;3.53;0.90;;;20.10;47.80;;;;;;4889229;29;20033;-75
2023/03/28 13:10:42;;;;;;;2.67;0.85;;;20.00;47.50;;;;;;4888445;29;20033;-75
2023/03/28 13:13:39;;;;;;;2.97;0.93;;;20.30;49.00;;;;;;4889108;29;20028;-73
2023/03/28 13:16:13;;;;;;;3.05;0.90;;;19.20;49.20;;;;;;4888378;29;20037;-71
2023/03/28 13:18:47;;;;;;;3.60;0.88;;;19.50;50.10;;;;;;4888811;29;20048;-74
2023/03/28 13:21:45;;;;;;;6.00;1.30;;;21.10;47.70;;;;;;4886545;29;20381;-74
2023/03/28 13:24:30;;;;;;;4.45;1.10;;;21.60;46.10;;;;;;4892934;29;20045;-74
2023/03/28 13:26:55;;;;;;;1.95;0.82;;;23.20;45.70;;;;;;4892607;29;20025;-74
2023/03/28 13:29:42;;;;;;;2.28;0.90;;;24.40;43.90;;;;;;4904365;29;20348;-73
2023/03/28 13:32:22;;;;;;;3.78;0.80;;;24.90;43.30;;;;;;4887096;29;20330;-71
2023/03/28 13:34:51;;;;;;;2.80;1.15;;;24.40;43.00;;;;;;4889306;29;20033;-74
2023/03/28 13:37:23;;;;;;;3.42;0.82;;;24.50;41.80;;;;;;4887985;29;20036;-72
2023/03/28 13:39:51;;;;;;;3.42;1.10;;;23.40;43.70;;;;;;4896008;29;20056;-71
2023/03/28 13:42:31;;;;;;;3.08;1.17;;;23.70;43.90;;;;;;4894270;29;20408;-72
2023/03/28 13:45:21;;;;;;;3.90;1.02;;;23.50;42.80;;;;;;4893589;29;20333;-73
2023/03/28 13:47:48;;;;;;;4.30;0.90;;;23.70;44.90;;;;;;4884778;29;20029;-73
2023/03/28 13:50:14;;;;;;;3.17;0.88;;;24.20;42.40;;;;;;4888017;29;20068;-71
2023/03/28 13:52:40;;;;;;;2.35;0.85;;;24.10;43.80;;;;;;4889008;29;20052;-70
2023/03/28 13:55:24;;;;;;;2.92;1.40;;;25.30;41.50;;;;;;4888343;29;20038;-73
2023/03/28 13:57:51;;;;;;;4.25;1.15;;;27.40;42.00;;;;;;4888722;29;20319;-73
2023/03/28 14:00:24;;;;;;;2.78;1.00;;;26.00;41.20;;;;;;4886386;29;20036;-72
2023/03/28 14:02:53;;;;;;;3.05;0.90;;;27.20;39.70;;;;;;4900368;29;20048;-72
2023/03/28 14:05:24;;;;;;;3.83;0.95;;;28.00;41.20;;;;;;4906763;29;20100;-72
2023/03/28 14:07:52;;;;;;;1.80;0.80;;;27.80;39.10;;;;;;4906303;29;20307;-71
2023/03/28 14:10:38;;;;;;;2.90;0.88;;;27.40;38.50;;;;;;4905798;29;20064;-75
2023/03/28 14:13:22;;;;;;;2.35;0.70;;;27.20;38.90;;;;;;4907012;29;20034;-74
2023/03/28 14:15:51;;;;;;;2.85;0.88;;;27.40;38.70;;;;;;4906382;29;20036;-72
2023/03/28 14:18:24;;;;;;;2.78;1.05;;;26.90;38.80;;;;;;4904755;29;20048;-73
2023/03/28 14:20:54;;;;;;;2.63;1.02;;;26.60;39.60;;;;;;4906375;29;20176;-71
2023/03/28 14:23:27;;;;;;;3.45;1.20;;;26.20;39.80;;;;;;4904577;29;20036;-71
2023/03/28 14:25:54;;;;;;;3.53;1.00;;;27.30;39.70;;;;;;4906398;29;20100;-71
2023/03/28 14:28:29;;;;;;;4.45;1.10;;;26.90;38.90;;;;;;4905364;29;20310;-72
2023/03/28 14:30:55;;;;;;;3.38;1.10;;;27.00;38.90;;;;;;4906474;29;20254;-70
2023/03/28 14:33:23;;;;;;;3.03;0.93;;;27.60;39.40;;;;;;4907222;29;20048;-72
2023/03/28 14:36:00;;;;;;;5.50;1.10;;;27.80;39.80;;;;;;4910377;29;20313;-71
2023/03/28 14:38:30;;;;;;;4.10;1.27;;;27.90;39.70;;;;;;4906407;29;20052;-70
2023/03/28 14:41:04;;;;;;;2.65;0.90;;;27.80;39.20;;;;;;4904465;29;20024;-71
2023/03/28 14:43:30;;;;;;;4.63;1.42;;;27.90;40.50;;;;;;4900075;29;20051;-71
2023/03/28 14:46:02;;;;;;;4.18;1.30;;;25.60;39.60;;;;;;4898879;29;20311;-70
2023/03/28 14:48:29;;;;;;;3.15;1.13;;;23.80;40.90;;;;;;4893549;29;20255;-72
2023/03/28 14:50:57;;;;;;;3.67;1.05;;;23.00;41.90;;;;;;4905136;29;20314;-73
2023/03/28 14:53:26;;;;;;;4.03;1.10;;;22.90;42.90;;;;;;4905239;29;20183;-70
2023/03/28 14:55:55;;;;;;;3.38;1.20;;;24.30;42.20;;;;;;4905784;29;20036;-72
2023/03/28 14:58:23;;;;;;;2.58;1.00;;;25.10;40.70;;;;;;4903503;29;20150;-72
2023/03/28 15:00:58;;;;;;;2.47;0.90;;;25.20;41.30;;;;;;4902705;29;20036;-69
2023/03/28 15:03:32;;;;;;;2.75;1.02;;;25.90;40.00;;;;;;4902246;29;20041;-71
2023/03/28 15:05:58;;;;;;;3.95;1.10;;;25.70;39.20;;;;;;4905261;29;20104;-71
2023/03/28 15:08:34;;;;;;;3.28;1.08;;;23.70;41.30;;;;;;4907222;29;20402;-72
2023/03/28 15:11:14;;;;;;;2.53;1.10;;;22.90;41.70;;;;;;4909232;29;20118;-72
2023/03/28 15:14:10;;;;;;;4.50;1.13;;;22.40;42.60;;;;;;4914950;29;20091;-71
2023/03/28 15:16:39;;;;;;;2.80;0.90;;;21.10;43.00;;;;;;4882130;29;20332;-72
2023/03/28 15:19:13;;;;;;;5.47;1.08;;;21.40;44.20;;;;;;4906239;29;20039;-73
2023/03/28 15:21:40;;;;;;;2.30;0.85;;;22.80;42.70;;;;;;4890704;29;20247;-71
2023/03/28 15:24:12;;;;;;;2.95;0.98;;;25.10;41.50;;;;;;4906296;29;20067;-71
2023/03/28 15:26:42;;;;;;;2.72;0.90;;;26.80;39.00;;;;;;4902233;29;20033;-72
2023/03/28 15:29:13;;;;;;;2.67;1.05;;;28.10;39.40;;;;;;4901854;29;20067;-72
2023/03/28 15:31:39;;;;;;;3.17;0.77;;;29.70;37.90;;;;;;4909923;29;20215;-70
2023/03/28 15:34:10;;;;;;;2.92;0.90;;;28.70;38.10;;;;;;4911495;29;20068;-70
2023/03/28 15:36:36;;;;;;;1.73;0.80;;;28.10;37.50;;;;;;4897686;29;20029;-71
2023/03/28 15:39:26;;;;;;;2.88;0.90;;;26.80;39.30;;;;;;4910050;29;20302;-71
2023/03/28 15:41:57;;;;;;;2.75;0.95;;;26.60;38.30;;;;;;4910004;29;20055;-73
2023/03/28 15:44:33;;;;;;;3.45;0.82;;;25.80;40.80;;;;;;4909553;29;20118;-71
2023/03/28 15:47:12;;;;;;;4.22;1.13;;;27.20;38.50;;;;;;4909517;29;20295;-72
2023/03/28 15:49:38;;;;;;;2.80;0.98;;;26.90;38.20;;;;;;4909897;29;20198;-71
2023/03/28 15:52:13;;;;;;;2.90;1.00;;;26.70;39.10;;;;;;4910153;29;20022;-71
2023/03/28 15:54:43;;;;;;;3.05;0.90;;;26.20;38.60;;;;;;4909386;29;20300;-70
2023/03/28 15:57:13;;;;;;;2.20;0.80;;;26.30;38.30;;;;;;4909838;29;20040;-69
2023/03/28 15:59:44;;;;;;;3.78;1.10;;;26.20;38.20;;;;;;4911391;29;20076;-70
2023/03/28 16:02:30;;;;;;;2.03;0.93;;;25.90;38.70;;;;;;4907490;29;20044;-70
2023/03/28 16:05:01;;;;;;;2.30;0.90;;;24.00;40.10;;;;;;4887422;29;20060;-71
2023/03/28 16:07:48;;;;;;;3.17;1.00;;;24.00;40.10;;;;;;4903065;29;20081;-70
2023/03/28 16:10:17;;;;;;;2.67;0.90;;;23.80;40.40;;;;;;4908548;29;20040;-72
2023/03/28 16:13:16;;;;;;;2.67;1.00;;;23.90;40.80;;;;;;4907997;29;20087;-75
2023/03/28 16:15:55;;;;;;;3.47;1.10;;;22.90;41.30;;;;;;4892670;29;20028;-70
2023/03/28 16:18:41;;;;;;;4.43;1.23;;;22.40;42.00;;;;;;4892684;29;20133;-74
2023/03/28 16:21:13;;;;;;;3.28;1.20;;;22.90;41.20;;;;;;4908271;29;20306;-73
2023/03/28 16:23:39;;;;;;;3.03;1.00;;;23.10;40.90;;;;;;4909019;29;20037;-75
2023/03/28 16:26:05;;;;;;;2.92;0.82;;;23.60;40.80;;;;;;4909155;29;20308;-73
2023/03/28 16:28:31;;;;;;;2.50;0.90;;;23.60;40.80;;;;;;4908708;29;20029;-72
2023/03/28 16:30:57;;;;;;;3.78;1.15;;;24.00;40.80;;;;;;4908996;29;20040;-72
2023/03/28 16:33:23;;;;;;;4.70;1.23;;;23.40;41.30;;;;;;4908310;29;20108;-72
2023/03/28 16:35:52;;;;;;;2.88;0.90;;;22.40;41.30;;;;;;4908626;29;20263;-74
2023/03/28 16:38:21;;;;;;;3.90;1.23;;;20.60;42.80;;;;;;4908433;29;20028;-73
2023/03/28 16:40:47;;;;;;;2.83;1.00;;;19.10;45.10;;;;;;4908543;29;20138;-73
2023/03/28 16:43:15;;;;;;;2.55;1.00;;;18.10;47.80;;;;;;4908660;29;20306;-73
2023/03/28 16:45:44;;;;;;;2.90;1.20;;;17.50;48.30;;;;;;4903102;29;20077;-73
2023/03/28 16:48:11;;;;;;;5.15;1.20;;;17.30;48.00;;;;;;4891140;29;20877;-68
2023/03/28 16:50:36;;;;;;;3.80;1.45;;;17.30;48.40;;;;;;4908065;29;20024;-68
2023/03/28 16:53:04;;;;;;;2.30;0.90;;;17.20;48.40;;;;;;4908383;29;20032;-69
2023/03/28 16:55:30;;;;;;;3.80;1.67;;;16.60;51.70;;;;;;4907681;29;20205;-70
2023/03/28 16:57:55;;;;;;;3.78;0.95;;;16.20;49.70;;;;;;4908716;29;20047;-71
2023/03/28 17:00:28;;;;;;;3.58;1.23;;;15.60;50.70;;;;;;4891326;29;20032;-71
2023/03/28 17:02:54;;;;;;;3.50;1.17;;;15.10;51.10;;;;;;4888164;29;20060;-73
2023/03/28 17:05:21;;;;;;;2.53;0.90;;;14.50;53.10;;;;;;4889360;29;20056;-71
2023/03/28 17:07:46;;;;;;;6.28;1.38;;;14.20;53.60;;;;;;4889678;29;20028;-73
2023/03/28 17:10:12;;;;;;;3.75;1.05;;;13.90;53.90;;;;;;4889855;29;20024;-73
2023/03/28 17:12:38;;;;;;;3.60;1.40;;;13.70;54.20;;;;;;4903671;29;20103;-72
2023/03/28 17:15:05;;;;;;;2.92;1.00;;;13.50;54.90;;;;;;4900851;29;20029;-73
2023/03/28 17:17:31;;;;;;;4.15;1.02;;;13.20;55.20;;;;;;4894821;29;20051;-72
2023/03/28 17:19:56;;;;;;;4.35;1.58;;;13.00;56.20;;;;;;4897766;29;20028;-72
2023/03/28 17:22:22;;;;;;;4.10;1.35;;;12.70;56.70;;;;;;4887728;29;20200;-73
2023/03/28 17:24:48;;;;;;;3.35;1.30;;;12.50;56.70;;;;;;4889417;29;20025;-74
2023/03/28 17:27:14;;;;;;;3.78;1.60;;;12.20;57.60;;;;;;4889982;29;20032;-73
2023/03/28 17:29:40;;;;;;;8.75;1.70;;;12.10;58.40;;;;;;4891391;29;20025;-72
2023/03/28 17:32:06;;;;;;;4.03;1.40;;;11.90;58.70;;;;;;4892831;29;20028;-73
2023/03/28 17:34:35;;;;;;;4.65;1.40;;;11.90;59.90;;;;;;4902246;29;20045;-70
2023/03/28 17:37:01;;;;;;;3.25;1.00;;;11.70;58.50;;;;;;4898507;29;20074;-72
2023/03/28 17:39:27;;;;;;;3.88;1.60;;;11.60;59.40;;;;;;4895523;29;20323;-70
2023/03/28 17:41:56;;;;;;;4.38;1.50;;;11.40;59.30;;;;;;4889784;29;20021;-72
2023/03/28 17:44:21;;;;;;;4.00;1.73;;;11.20;60.10;;;;;;4888258;29;20044;-73
2023/03/28 17:46:47;;;;;;;5.68;1.60;;;11.00;60.40;;;;;;4889946;29;20263;-73
2023/03/28 17:49:13;;;;;;;3.25;1.60;;;10.90;60.90;;;;;;4889471;29;20045;-72
2023/03/28 17:51:39;;;;;;;6.07;1.50;;;10.70;61.10;;;;;;4886610;29;20052;-72
2023/03/28 17:54:10;;;;;;;3.88;1.30;;;10.60;61.50;;;;;;4887708;29;20033;-75
2023/03/28 17:56:38;;;;;;;5.65;1.52;;;10.60;62.20;;;;;;4888510;29;20036;-76
2023/03/28 17:59:04;;;;;;;6.97;1.40;;;10.60;62.10;;;;;;4888408;29;20032;-75
2023/03/28 18:01:30;;;;;;;3.00;1.40;;;10.50;61.60;;;;;;4896671;29;20036;-72
2023/03/28 18:03:56;;;;;;;3.15;1.30;;;10.40;61.70;;;;;;4907070;29;20051;-74
2023/03/28 18:06:37;;;;;;;3.63;1.77;;;10.40;61.90;;;;;;4907117;29;20044;-72
2023/03/28 18:09:03;;;;;;;3.13;1.30;;;10.30;61.70;;;;;;4907071;29;20040;-73
2023/03/28 18:11:29;;;;;;;4.25;1.92;;;10.30;62.00;;;;;;4906295;29;20020;-74
2023/03/28 18:13:57;;;;;;;5.15;1.73;;;10.30;62.50;;;;;;4907026;29;20040;-74
2023/03/28 18:16:26;;;;;;;4.28;1.42;;;10.20;62.10;;;;;;4894541;29;20040;-72
2023/03/28 18:18:53;;;;;;;5.68;1.95;;;10.10;62.40;;;;;;4919969;29;20043;-73
2023/03/28 18:21:22;;;;;;;6.15;1.70;;;10.10;62.60;;;;;;4907038;29;20047;-74
2023/03/28 18:23:48;;;;;;;2.92;1.63;;;10.00;62.60;;;;;;4906704;29;20041;-73
2023/03/28 18:26:14;;;;;;;3.90;1.50;;;10.00;62.90;;;;;;4919860;29;20280;-74
2023/03/28 18:28:40;;;;;;;3.63;1.85;;;9.90;63.00;;;;;;4918555;29;20048;-74
2023/03/28 18:31:09;;;;;;;4.90;2.28;;;9.80;63.40;;;;;;4907495;29;20027;-75
2023/03/28 18:33:35;;;;;;;5.05;2.17;;;9.80;64.20;;;;;;4898491;29;20307;-73